createdAt,value
2019-01-27T00:00:01.159Z,0.00
2019-01-27T00:01:00.416Z,0.00
2019-01-27T00:02:53.315Z,0.00
2019-01-27T00:03:53.389Z,0.00
2019-01-27T00:05:46.231Z,0.00
2019-01-27T00:06:46.290Z,0.00
2019-01-27T00:08:39.129Z,0.00
2019-01-27T00:09:39.172Z,0.00
2019-01-27T00:11:32.200Z,0.00
2019-01-27T00:12:32.059Z,0.00
2019-01-27T00:14:25.010Z,0.00
2019-01-27T00:15:24.960Z,0.00
2019-01-27T00:17:17.875Z,0.00
2019-01-27T00:18:17.867Z,0.00
2019-01-27T00:20:10.785Z,0.00
2019-01-27T00:21:10.775Z,0.00
2019-01-27T00:23:03.668Z,0.00
2019-01-27T00:24:03.681Z,0.00
2019-01-27T00:25:56.585Z,0.00
2019-01-27T00:26:56.589Z,0.00
2019-01-27T00:28:49.489Z,0.00
2019-01-27T00:29:49.492Z,0.00
2019-01-27T00:31:42.400Z,0.00
2019-01-27T00:32:42.401Z,0.00
2019-01-27T00:34:35.293Z,0.00
2019-01-27T00:35:35.375Z,0.00
2019-01-27T00:37:28.210Z,0.00
2019-01-27T00:38:28.282Z,0.00
2019-01-27T00:40:21.169Z,0.00
2019-01-27T00:41:21.218Z,0.00
2019-01-27T00:43:14.147Z,0.00
2019-01-27T00:44:14.033Z,0.00
2019-01-27T00:46:07.011Z,0.00
2019-01-27T00:47:06.947Z,0.00
2019-01-27T00:48:59.845Z,0.00
2019-01-27T00:49:59.854Z,0.00
2019-01-27T00:51:52.760Z,0.00
2019-01-27T00:52:52.765Z,0.00
2019-01-27T00:54:45.659Z,0.00
2019-01-27T00:55:45.671Z,0.00
2019-01-27T00:57:38.601Z,0.00
2019-01-27T00:58:38.608Z,0.00
2019-01-27T01:00:31.504Z,0.00
2019-01-27T01:01:31.517Z,0.00
2019-01-27T01:03:24.428Z,0.00
2019-01-27T01:04:24.503Z,0.00
2019-01-27T01:06:17.330Z,0.00
2019-01-27T01:07:17.415Z,0.00
2019-01-27T01:09:10.392Z,0.00
2019-01-27T01:10:10.260Z,0.00
2019-01-27T01:12:03.298Z,0.00
2019-01-27T01:13:03.158Z,0.00
2019-01-27T01:14:56.129Z,0.00
2019-01-27T01:15:56.067Z,0.00
2019-01-27T01:17:48.970Z,0.00
2019-01-27T01:18:48.976Z,0.00
2019-01-27T01:20:41.878Z,0.00
2019-01-27T01:21:41.884Z,0.00
2019-01-27T01:23:34.789Z,0.00
2019-01-27T01:24:34.795Z,0.00
2019-01-27T01:26:27.690Z,0.00
2019-01-27T01:27:27.704Z,0.00
2019-01-27T01:29:20.608Z,0.00
2019-01-27T01:30:20.614Z,0.00
2019-01-27T01:32:13.509Z,0.00
2019-01-27T01:33:13.521Z,0.00
2019-01-27T01:35:06.424Z,0.00
2019-01-27T01:36:06.428Z,0.00
2019-01-27T01:37:59.335Z,0.00
2019-01-27T01:38:59.339Z,0.00
2019-01-27T01:40:52.234Z,0.00
2019-01-27T01:41:52.246Z,0.00
2019-01-27T01:43:45.187Z,0.00
2019-01-27T01:44:45.156Z,0.00
2019-01-27T01:46:38.054Z,0.00
2019-01-27T01:47:38.068Z,0.00
2019-01-27T01:49:30.969Z,0.00
2019-01-27T01:50:30.975Z,0.00
2019-01-27T01:52:23.871Z,0.00
2019-01-27T01:53:23.883Z,0.00
2019-01-27T01:55:16.791Z,0.00
2019-01-27T01:56:16.793Z,0.00
2019-01-27T01:58:09.697Z,0.00
2019-01-27T01:59:09.703Z,0.00
2019-01-27T02:01:02.598Z,0.00
2019-01-27T02:02:02.610Z,0.00
2019-01-27T02:03:55.514Z,0.00
2019-01-27T02:04:55.518Z,0.00
2019-01-27T02:06:48.416Z,0.00
2019-01-27T02:07:48.428Z,0.00
2019-01-27T02:09:41.333Z,0.00
2019-01-27T02:10:41.340Z,0.00
2019-01-27T02:12:34.233Z,0.00
2019-01-27T02:13:34.243Z,0.00
2019-01-27T02:15:27.148Z,0.00
2019-01-27T02:16:27.153Z,0.00
2019-01-27T02:18:20.047Z,0.00
2019-01-27T02:19:20.061Z,0.00
2019-01-27T02:21:12.961Z,0.00
2019-01-27T02:22:12.968Z,0.00
2019-01-27T02:24:05.878Z,0.00
2019-01-27T02:25:05.877Z,0.00
2019-01-27T02:26:58.773Z,0.00
2019-01-27T02:27:58.784Z,0.00
2019-01-27T02:29:51.691Z,0.00
2019-01-27T02:30:51.696Z,0.00
2019-01-27T02:32:44.588Z,0.00
2019-01-27T02:33:44.601Z,0.00
2019-01-27T02:35:37.505Z,0.00
2019-01-27T02:36:37.513Z,0.00
2019-01-27T02:38:30.408Z,0.00
2019-01-27T02:39:30.418Z,0.00
2019-01-27T02:41:23.369Z,0.00
2019-01-27T02:42:23.326Z,0.00
2019-01-27T02:44:16.223Z,0.00
2019-01-27T02:45:16.236Z,0.00
2019-01-27T02:47:09.141Z,0.00
2019-01-27T02:48:09.147Z,0.00
2019-01-27T02:50:02.039Z,0.00
2019-01-27T02:51:02.054Z,0.00
2019-01-27T02:52:54.955Z,0.00
2019-01-27T02:53:54.963Z,0.00
2019-01-27T02:55:47.865Z,0.00
2019-01-27T02:56:47.868Z,0.00
2019-01-27T02:58:40.766Z,0.00
2019-01-27T02:59:40.779Z,0.00
2019-01-27T03:01:33.686Z,0.00
2019-01-27T03:02:33.687Z,0.00
2019-01-27T03:04:26.586Z,0.00
2019-01-27T03:05:26.596Z,0.00
2019-01-27T03:07:19.499Z,0.00
2019-01-27T03:08:19.509Z,0.00
2019-01-27T03:10:12.404Z,0.00
2019-01-27T03:11:12.411Z,0.00
2019-01-27T03:13:05.314Z,0.00
2019-01-27T03:14:05.320Z,0.00
2019-01-27T03:15:58.229Z,0.00
2019-01-27T03:16:58.234Z,0.00
2019-01-27T03:18:51.130Z,0.00
2019-01-27T03:19:51.140Z,0.00
2019-01-27T03:21:44.048Z,0.00
2019-01-27T03:22:44.049Z,0.00
2019-01-27T03:24:36.943Z,0.00
2019-01-27T03:25:36.958Z,0.00
2019-01-27T03:27:29.859Z,0.00
2019-01-27T03:28:29.863Z,0.00
2019-01-27T03:30:22.761Z,0.00
2019-01-27T03:31:22.775Z,0.00
2019-01-27T03:33:15.676Z,0.00
2019-01-27T03:34:15.679Z,0.00
2019-01-27T03:36:08.575Z,0.00
2019-01-27T03:37:08.587Z,0.00
2019-01-27T03:39:01.492Z,0.00
2019-01-27T03:40:01.495Z,0.00
2019-01-27T03:41:54.399Z,0.00
2019-01-27T03:42:54.404Z,0.00
2019-01-27T03:44:47.298Z,0.00
2019-01-27T03:45:47.313Z,0.00
2019-01-27T03:47:40.216Z,0.00
2019-01-27T03:48:40.222Z,0.00
2019-01-27T03:50:33.118Z,0.00
2019-01-27T03:51:33.133Z,0.00
2019-01-27T03:53:26.035Z,0.00
2019-01-27T03:54:26.038Z,0.00
2019-01-27T03:56:18.941Z,0.00
2019-01-27T03:57:18.950Z,0.00
2019-01-27T03:59:11.853Z,0.00
2019-01-27T04:00:11.860Z,0.00
2019-01-27T04:02:04.754Z,0.00
2019-01-27T04:03:04.767Z,0.00
2019-01-27T04:04:57.670Z,0.00
2019-01-27T04:05:57.674Z,0.00
2019-01-27T04:07:50.587Z,0.00
2019-01-27T04:08:50.584Z,0.00
2019-01-27T04:10:44.749Z,0.00
2019-01-27T04:11:43.490Z,0.00
2019-01-27T04:13:36.558Z,0.00
2019-01-27T04:14:36.557Z,0.00
2019-01-27T04:16:29.445Z,0.00
2019-01-27T04:17:29.459Z,0.00
2019-01-27T04:19:22.360Z,0.00
2019-01-27T04:20:22.365Z,0.00
2019-01-27T04:22:15.261Z,0.00
2019-01-27T04:23:15.274Z,0.00
2019-01-27T04:25:08.174Z,0.00
2019-01-27T04:26:08.178Z,0.00
2019-01-27T04:28:01.074Z,0.00
2019-01-27T04:29:01.088Z,0.00
2019-01-27T04:30:53.990Z,0.00
2019-01-27T04:31:53.996Z,0.00
2019-01-27T04:33:46.893Z,0.00
2019-01-27T04:34:46.907Z,0.00
2019-01-27T04:36:39.809Z,0.00
2019-01-27T04:37:39.816Z,0.00
2019-01-27T04:39:32.721Z,0.00
2019-01-27T04:40:32.721Z,0.00
2019-01-27T04:42:25.618Z,0.00
2019-01-27T04:43:25.631Z,0.00
2019-01-27T04:45:18.534Z,0.00
2019-01-27T04:46:18.538Z,0.00
2019-01-27T04:48:11.434Z,0.00
2019-01-27T04:49:11.447Z,0.00
2019-01-27T04:51:04.351Z,0.00
2019-01-27T04:52:04.361Z,0.00
2019-01-27T04:53:57.254Z,0.00
2019-01-27T04:54:57.267Z,0.00
2019-01-27T04:56:50.177Z,0.00
2019-01-27T04:57:50.176Z,0.00
2019-01-27T04:59:43.090Z,0.00
2019-01-27T05:00:43.082Z,0.00
2019-01-27T05:02:35.979Z,0.00
2019-01-27T05:03:35.993Z,0.00
2019-01-27T05:05:28.950Z,0.00
2019-01-27T05:06:28.903Z,0.00
2019-01-27T05:08:21.795Z,0.00
2019-01-27T05:09:21.807Z,0.00
2019-01-27T05:11:14.712Z,0.00
2019-01-27T05:12:14.714Z,0.00
2019-01-27T05:14:07.612Z,0.00
2019-01-27T05:15:07.626Z,0.00
2019-01-27T05:17:00.608Z,0.00
2019-01-27T05:18:00.534Z,0.00
2019-01-27T05:19:53.425Z,0.00
2019-01-27T05:20:53.439Z,0.00
2019-01-27T05:22:46.344Z,0.00
2019-01-27T05:23:46.347Z,0.00
2019-01-27T05:25:39.251Z,0.00
2019-01-27T05:26:39.255Z,0.00
2019-01-27T05:28:32.150Z,0.00
2019-01-27T05:29:32.172Z,0.00
2019-01-27T05:31:25.065Z,0.00
2019-01-27T05:32:25.069Z,0.00
2019-01-27T05:34:17.964Z,0.00
2019-01-27T05:35:17.978Z,0.00
2019-01-27T05:37:10.884Z,0.00
2019-01-27T05:38:10.887Z,0.00
2019-01-27T05:40:03.782Z,0.00
2019-01-27T05:41:03.791Z,0.00
2019-01-27T05:42:56.699Z,0.00
2019-01-27T05:43:56.750Z,0.00
2019-01-27T05:45:49.600Z,0.00
2019-01-27T05:46:49.613Z,0.00
2019-01-27T05:48:42.528Z,0.00
2019-01-27T05:49:42.523Z,0.00
2019-01-27T05:51:35.420Z,0.00
2019-01-27T05:52:35.427Z,0.00
2019-01-27T05:54:28.333Z,0.00
2019-01-27T05:55:28.338Z,0.00
2019-01-27T05:57:21.245Z,0.00
2019-01-27T05:58:21.245Z,0.00
2019-01-27T06:00:14.141Z,0.00
2019-01-27T06:01:14.154Z,0.00
2019-01-27T06:03:07.059Z,0.00
2019-01-27T06:04:07.064Z,0.00
2019-01-27T06:05:59.960Z,0.00
2019-01-27T06:06:59.973Z,0.00
2019-01-27T06:08:52.879Z,0.00
2019-01-27T06:09:52.883Z,0.00
2019-01-27T06:11:45.771Z,0.00
2019-01-27T06:12:45.791Z,0.00
2019-01-27T06:14:38.695Z,0.00
2019-01-27T06:15:38.698Z,0.00
2019-01-27T06:17:31.601Z,0.00
2019-01-27T06:18:31.607Z,0.00
2019-01-27T06:20:24.506Z,0.00
2019-01-27T06:21:24.514Z,0.00
2019-01-27T06:23:17.427Z,0.00
2019-01-27T06:24:17.431Z,0.00
2019-01-27T06:26:10.327Z,0.00
2019-01-27T06:27:10.339Z,0.00
2019-01-27T06:29:03.238Z,0.00
2019-01-27T06:30:03.245Z,0.00
2019-01-27T06:31:56.140Z,0.00
2019-01-27T06:32:56.151Z,0.00
2019-01-27T06:34:49.058Z,0.00
2019-01-27T06:35:49.066Z,0.00
2019-01-27T06:37:41.958Z,0.00
2019-01-27T06:38:41.972Z,0.00
2019-01-27T06:40:34.871Z,0.00
2019-01-27T06:41:34.874Z,0.00
2019-01-27T06:43:27.781Z,0.00
2019-01-27T06:44:27.787Z,0.00
2019-01-27T06:46:20.707Z,0.00
2019-01-27T06:47:20.726Z,0.00
2019-01-27T06:49:13.622Z,0.00
2019-01-27T06:50:13.625Z,0.00
2019-01-27T06:52:06.522Z,0.00
2019-01-27T06:53:06.533Z,0.00
2019-01-27T06:54:59.437Z,0.00
2019-01-27T06:55:59.441Z,0.00
2019-01-27T06:57:52.337Z,0.00
2019-01-27T06:58:52.349Z,0.00
2019-01-27T07:00:45.265Z,0.00
2019-01-27T07:01:45.270Z,0.00
2019-01-27T07:03:38.172Z,0.00
2019-01-27T07:04:38.175Z,0.00
2019-01-27T07:06:31.072Z,0.00
2019-01-27T07:07:31.082Z,0.00
2019-01-27T07:09:23.986Z,0.00
2019-01-27T07:10:23.989Z,0.00
2019-01-27T07:12:16.884Z,0.00
2019-01-27T07:13:16.897Z,0.00
2019-01-27T07:15:09.812Z,5.63
2019-01-27T07:16:09.806Z,5.63
2019-01-27T07:18:02.699Z,5.63
2019-01-27T07:19:02.710Z,5.63
2019-01-27T07:20:55.614Z,5.63
2019-01-27T07:21:55.619Z,5.63
2019-01-27T07:23:48.515Z,11.25
2019-01-27T07:24:48.525Z,11.25
2019-01-27T07:26:41.430Z,11.25
2019-01-27T07:27:41.434Z,11.25
2019-01-27T07:29:34.337Z,11.25
2019-01-27T07:30:34.345Z,11.25
2019-01-27T07:32:27.237Z,16.88
2019-01-27T07:33:27.247Z,22.50
2019-01-27T07:35:20.148Z,22.50
2019-01-27T07:36:20.157Z,22.50
2019-01-27T07:38:13.048Z,22.50
2019-01-27T07:39:13.061Z,22.50
2019-01-27T07:41:05.964Z,33.75
2019-01-27T07:42:05.970Z,39.38
2019-01-27T07:43:58.866Z,45.00
2019-01-27T07:44:58.878Z,50.63
2019-01-27T07:46:51.785Z,45.00
2019-01-27T07:47:51.892Z,45.00
2019-01-27T07:49:44.684Z,45.00
2019-01-27T07:50:44.700Z,39.38
2019-01-27T07:52:37.603Z,28.13
2019-01-27T07:53:37.605Z,22.50
2019-01-27T07:55:30.500Z,28.13
2019-01-27T07:56:30.513Z,28.13
2019-01-27T07:58:23.421Z,45.00
2019-01-27T07:59:23.424Z,50.63
2019-01-27T08:01:16.348Z,56.25
2019-01-27T08:02:16.335Z,61.88
2019-01-27T08:04:09.229Z,56.25
2019-01-27T08:05:09.243Z,56.25
2019-01-27T08:07:02.148Z,78.75
2019-01-27T08:08:02.151Z,84.38
2019-01-27T08:09:55.046Z,73.13
2019-01-27T08:10:55.058Z,84.38
2019-01-27T08:12:47.962Z,95.63
2019-01-27T08:13:47.969Z,95.63
2019-01-27T08:15:40.864Z,78.75
2019-01-27T08:16:40.879Z,84.38
2019-01-27T08:18:33.786Z,90.00
2019-01-27T08:19:33.793Z,95.63
2019-01-27T08:21:26.687Z,101.25
2019-01-27T08:22:26.700Z,101.25
2019-01-27T08:24:19.605Z,95.63
2019-01-27T08:25:19.610Z,106.88
2019-01-27T08:27:12.547Z,112.50
2019-01-27T08:28:12.566Z,101.25
2019-01-27T08:30:05.450Z,95.63
2019-01-27T08:31:05.455Z,95.63
2019-01-27T08:32:58.362Z,90.00
2019-01-27T08:33:58.368Z,84.38
2019-01-27T08:35:51.267Z,84.38
2019-01-27T08:36:51.281Z,78.75
2019-01-27T08:38:44.195Z,61.88
2019-01-27T08:39:44.190Z,61.88
2019-01-27T08:41:37.086Z,95.63
2019-01-27T08:42:37.101Z,112.50
2019-01-27T08:44:30.005Z,112.50
2019-01-27T08:45:30.023Z,106.88
2019-01-27T08:47:22.909Z,112.50
2019-01-27T08:48:22.922Z,118.13
2019-01-27T08:50:15.832Z,140.63
2019-01-27T08:51:15.833Z,151.88
2019-01-27T08:53:08.736Z,168.75
2019-01-27T08:54:08.740Z,140.63
2019-01-27T08:56:01.637Z,112.50
2019-01-27T08:57:01.651Z,112.50
2019-01-27T08:58:54.555Z,135.00
2019-01-27T08:59:54.563Z,151.88
2019-01-27T09:01:47.458Z,157.50
2019-01-27T09:02:47.472Z,135.00
2019-01-27T09:04:40.375Z,129.38
2019-01-27T09:05:40.381Z,129.38
2019-01-27T09:07:33.276Z,123.75
2019-01-27T09:08:33.291Z,123.75
2019-01-27T09:10:26.198Z,112.50
2019-01-27T09:11:26.203Z,106.88
2019-01-27T09:13:19.129Z,101.25
2019-01-27T09:14:19.113Z,106.88
2019-01-27T09:16:12.011Z,123.75
2019-01-27T09:17:12.024Z,123.75
2019-01-27T09:19:04.929Z,151.88
2019-01-27T09:20:04.936Z,157.50
2019-01-27T09:21:57.837Z,157.50
2019-01-27T09:22:57.848Z,163.13
2019-01-27T09:24:50.755Z,151.88
2019-01-27T09:25:50.760Z,151.88
2019-01-27T09:27:43.657Z,168.75
2019-01-27T09:28:43.669Z,174.38
2019-01-27T09:30:36.575Z,180.00
2019-01-27T09:31:36.581Z,174.38
2019-01-27T09:33:29.475Z,163.13
2019-01-27T09:34:29.490Z,174.38
2019-01-27T09:36:22.634Z,180.00
2019-01-27T09:37:22.575Z,185.63
2019-01-27T09:39:15.474Z,174.38
2019-01-27T09:40:15.492Z,174.38
2019-01-27T09:42:08.392Z,202.50
2019-01-27T09:43:08.401Z,213.75
2019-01-27T09:45:01.309Z,219.38
2019-01-27T09:46:05.451Z,208.13
2019-01-27T09:47:54.209Z,219.38
2019-01-27T09:48:54.225Z,219.38
2019-01-27T09:50:47.129Z,196.88
2019-01-27T09:51:47.138Z,196.88
2019-01-27T09:53:40.036Z,191.25
2019-01-27T09:54:40.051Z,191.25
2019-01-27T09:56:32.962Z,174.38
2019-01-27T09:57:32.968Z,163.13
2019-01-27T09:59:26.864Z,140.63
2019-01-27T10:00:26.876Z,140.63
2019-01-27T10:02:19.784Z,129.38
2019-01-27T10:03:19.843Z,129.38
2019-01-27T10:05:12.711Z,135.00
2019-01-27T10:06:12.717Z,140.63
2019-01-27T10:08:05.598Z,157.50
2019-01-27T10:09:05.617Z,163.13
2019-01-27T10:10:58.552Z,168.75
2019-01-27T10:11:58.578Z,163.13
2019-01-27T10:13:51.461Z,157.50
2019-01-27T10:14:51.466Z,168.75
2019-01-27T10:16:44.384Z,168.75
2019-01-27T10:17:44.389Z,151.88
2019-01-27T10:19:37.340Z,168.75
2019-01-27T10:20:37.306Z,163.13
2019-01-27T10:22:30.209Z,140.63
2019-01-27T10:23:30.216Z,151.88
2019-01-27T10:25:23.115Z,135.00
2019-01-27T10:26:23.129Z,135.00
2019-01-27T10:28:16.039Z,168.75
2019-01-27T10:29:16.044Z,151.88
2019-01-27T10:31:08.943Z,180.00
2019-01-27T10:32:08.956Z,180.00
2019-01-27T10:34:02.864Z,196.88
2019-01-27T10:35:02.917Z,191.25
2019-01-27T10:36:55.813Z,185.63
2019-01-27T10:37:55.820Z,174.38
2019-01-27T10:39:48.837Z,174.38
2019-01-27T10:40:48.810Z,213.75
2019-01-27T10:42:42.068Z,236.25
2019-01-27T10:43:41.762Z,236.25
2019-01-27T10:45:34.740Z,253.13
2019-01-27T10:46:34.632Z,247.50
2019-01-27T10:48:27.557Z,253.13
2019-01-27T10:49:27.546Z,258.75
2019-01-27T10:51:20.506Z,247.50
2019-01-27T10:52:20.487Z,241.88
2019-01-27T10:54:13.396Z,230.63
2019-01-27T10:55:13.409Z,258.75
2019-01-27T10:57:06.370Z,258.75
2019-01-27T10:58:06.341Z,253.13
2019-01-27T10:59:59.245Z,247.50
2019-01-27T11:00:59.254Z,230.63
2019-01-27T11:02:52.476Z,225.00
2019-01-27T11:03:52.202Z,219.38
2019-01-27T11:05:45.136Z,168.75
2019-01-27T11:06:45.142Z,157.50
2019-01-27T11:08:38.049Z,168.75
2019-01-27T11:09:38.056Z,146.25
2019-01-27T11:11:30.955Z,146.25
2019-01-27T11:12:30.970Z,140.63
2019-01-27T11:14:23.922Z,101.25
2019-01-27T11:15:23.926Z,123.75
2019-01-27T11:17:16.865Z,157.50
2019-01-27T11:18:16.838Z,174.38
2019-01-27T11:20:10.352Z,191.25
2019-01-27T11:21:09.753Z,157.50
2019-01-27T11:23:02.674Z,157.50
2019-01-27T11:24:02.689Z,163.13
2019-01-27T11:26:00.687Z,157.50
2019-01-27T11:26:55.600Z,146.25
2019-01-27T11:28:48.521Z,174.38
2019-01-27T11:29:48.513Z,163.13
2019-01-27T11:31:41.437Z,202.50
2019-01-27T11:32:41.429Z,180.00
2019-01-27T11:34:34.382Z,168.75
2019-01-27T11:35:34.359Z,157.50
2019-01-27T11:37:27.254Z,157.50
2019-01-27T11:38:27.268Z,151.88
2019-01-27T11:40:20.353Z,157.50
2019-01-27T11:41:20.351Z,157.50
2019-01-27T11:43:13.273Z,180.00
2019-01-27T11:44:13.261Z,174.38
2019-01-27T11:46:06.172Z,157.50
2019-01-27T11:47:06.173Z,140.63
2019-01-27T11:48:59.075Z,106.88
2019-01-27T11:49:59.085Z,135.00
2019-01-27T11:51:51.994Z,118.13
2019-01-27T11:52:52.064Z,123.75
2019-01-27T11:54:44.953Z,101.25
2019-01-27T11:55:44.928Z,112.50
2019-01-27T11:57:37.814Z,106.88
2019-01-27T11:58:37.855Z,106.88
2019-01-27T12:00:30.739Z,112.50
2019-01-27T12:01:30.836Z,118.13
2019-01-27T12:03:23.639Z,106.88
2019-01-27T12:04:23.658Z,112.50
2019-01-27T12:06:16.563Z,174.38
2019-01-27T12:07:16.569Z,146.25
2019-01-27T12:09:09.466Z,118.13
2019-01-27T12:10:09.483Z,140.63
2019-01-27T12:12:02.390Z,129.38
2019-01-27T12:13:02.396Z,140.63
2019-01-27T12:14:55.300Z,146.25
2019-01-27T12:15:55.311Z,146.25
2019-01-27T12:17:48.221Z,146.25
2019-01-27T12:18:49.837Z,135.00
2019-01-27T12:20:41.126Z,151.88
2019-01-27T12:21:41.131Z,135.00
2019-01-27T12:23:34.034Z,163.13
2019-01-27T12:24:34.049Z,151.88
2019-01-27T12:26:26.955Z,157.50
2019-01-27T12:27:26.960Z,174.38
2019-01-27T12:29:19.867Z,168.75
2019-01-27T12:30:19.877Z,185.63
2019-01-27T12:32:12.781Z,157.50
2019-01-27T12:33:12.788Z,163.13
2019-01-27T12:35:05.694Z,196.88
2019-01-27T12:36:05.707Z,208.13
2019-01-27T12:37:58.611Z,208.13
2019-01-27T12:38:58.616Z,253.13
2019-01-27T12:40:51.523Z,241.88
2019-01-27T12:41:51.527Z,236.25
2019-01-27T12:43:44.423Z,168.75
2019-01-27T12:44:44.440Z,146.25
2019-01-27T12:46:37.348Z,157.50
2019-01-27T12:47:37.355Z,174.38
2019-01-27T12:49:30.261Z,146.25
2019-01-27T12:50:30.270Z,135.00
2019-01-27T12:52:23.186Z,157.50
2019-01-27T12:53:23.196Z,168.75
2019-01-27T12:55:16.100Z,163.13
2019-01-27T12:56:16.118Z,151.88
2019-01-27T12:58:09.032Z,135.00
2019-01-27T12:59:09.043Z,129.38
2019-01-27T13:01:01.945Z,118.13
2019-01-27T13:02:01.962Z,112.50
2019-01-27T13:03:54.866Z,106.88
2019-01-27T13:04:54.873Z,118.13
2019-01-27T13:06:47.780Z,140.63
2019-01-27T13:07:47.790Z,135.00
2019-01-27T13:09:40.687Z,90.00
2019-01-27T13:10:40.702Z,67.50
2019-01-27T13:12:33.641Z,50.63
2019-01-27T13:13:33.641Z,56.25
2019-01-27T13:15:26.539Z,56.25
2019-01-27T13:16:26.553Z,61.88
2019-01-27T13:18:19.463Z,56.25
2019-01-27T13:19:19.468Z,56.25
2019-01-27T13:21:12.371Z,67.50
2019-01-27T13:22:12.468Z,61.88
2019-01-27T13:24:05.287Z,61.88
2019-01-27T13:25:05.301Z,61.88
2019-01-27T13:26:58.216Z,84.38
2019-01-27T13:27:58.206Z,67.50
2019-01-27T13:29:51.102Z,90.00
2019-01-27T13:30:51.119Z,90.00
2019-01-27T13:32:44.023Z,135.00
2019-01-27T13:33:44.026Z,118.13
2019-01-27T13:35:38.857Z,129.38
2019-01-27T13:36:36.939Z,90.00
2019-01-27T13:38:29.846Z,112.50
2019-01-27T13:39:29.851Z,112.50
2019-01-27T13:41:22.748Z,90.00
2019-01-27T13:42:22.762Z,95.63
2019-01-27T13:44:15.674Z,118.13
2019-01-27T13:45:15.676Z,123.75
2019-01-27T13:47:08.577Z,106.88
2019-01-27T13:48:08.591Z,90.00
2019-01-27T13:50:01.501Z,101.25
2019-01-27T13:51:01.501Z,90.00
2019-01-27T13:52:54.407Z,106.88
2019-01-27T13:53:54.412Z,101.25
2019-01-27T13:55:47.358Z,101.25
2019-01-27T13:56:47.327Z,101.25
2019-01-27T13:58:40.231Z,90.00
2019-01-27T13:59:40.238Z,90.00
2019-01-27T14:01:33.134Z,73.13
2019-01-27T14:02:33.149Z,78.75
2019-01-27T14:04:26.050Z,95.63
2019-01-27T14:05:26.057Z,95.63
2019-01-27T14:07:18.958Z,95.63
2019-01-27T14:08:18.981Z,95.63
2019-01-27T14:10:11.875Z,78.75
2019-01-27T14:11:11.880Z,84.38
2019-01-27T14:13:04.809Z,78.75
2019-01-27T14:14:04.814Z,84.38
2019-01-27T14:15:57.723Z,90.00
2019-01-27T14:16:57.719Z,84.38
2019-01-27T14:18:50.637Z,56.25
2019-01-27T14:19:50.636Z,45.00
2019-01-27T14:21:43.562Z,28.13
2019-01-27T14:22:43.547Z,33.75
2019-01-27T14:24:36.467Z,33.75
2019-01-27T14:25:36.475Z,33.75
2019-01-27T14:27:29.374Z,33.75
2019-01-27T14:28:29.387Z,33.75
2019-01-27T14:30:22.291Z,28.13
2019-01-27T14:31:22.342Z,22.50
2019-01-27T14:33:15.199Z,28.13
2019-01-27T14:34:15.206Z,39.38
2019-01-27T14:36:08.107Z,45.00
2019-01-27T14:37:08.212Z,50.63
2019-01-27T14:39:01.026Z,67.50
2019-01-27T14:40:01.030Z,73.13
2019-01-27T14:41:53.929Z,73.13
2019-01-27T14:42:53.943Z,73.13
2019-01-27T14:44:46.849Z,61.88
2019-01-27T14:45:46.860Z,50.63
2019-01-27T14:47:39.760Z,56.25
2019-01-27T14:48:39.819Z,56.25
2019-01-27T14:50:32.674Z,45.00
2019-01-27T14:51:32.682Z,39.38
2019-01-27T14:53:26.418Z,50.63
2019-01-27T14:54:25.592Z,45.00
2019-01-27T14:56:18.522Z,28.13
2019-01-27T14:57:18.504Z,22.50
2019-01-27T14:59:11.408Z,28.13
2019-01-27T15:00:11.415Z,33.75
2019-01-27T15:02:04.312Z,28.13
2019-01-27T15:03:04.329Z,28.13
2019-01-27T15:04:57.235Z,22.50
2019-01-27T15:05:57.241Z,28.13
2019-01-27T15:07:50.136Z,33.75
2019-01-27T15:08:50.150Z,28.13
2019-01-27T15:10:43.058Z,33.75
2019-01-27T15:11:43.058Z,33.75
2019-01-27T15:13:35.966Z,28.13
2019-01-27T15:14:35.971Z,33.75
2019-01-27T15:16:28.874Z,28.13
2019-01-27T15:17:28.889Z,28.13
2019-01-27T15:19:21.807Z,28.13
2019-01-27T15:20:21.805Z,33.75
2019-01-27T15:22:14.726Z,33.75
2019-01-27T15:23:14.715Z,39.38
2019-01-27T15:25:07.647Z,45.00
2019-01-27T15:26:07.632Z,33.75
2019-01-27T15:28:00.520Z,33.75
2019-01-27T15:29:00.537Z,33.75
2019-01-27T15:30:53.440Z,28.13
2019-01-27T15:31:53.449Z,22.50
2019-01-27T15:33:46.351Z,16.88
2019-01-27T15:34:46.358Z,16.88
2019-01-27T15:36:39.295Z,16.88
2019-01-27T15:37:39.267Z,16.88
2019-01-27T15:39:32.173Z,16.88
2019-01-27T15:40:32.180Z,11.25
2019-01-27T15:42:25.076Z,16.88
2019-01-27T15:43:25.089Z,11.25
2019-01-27T15:45:17.997Z,11.25
2019-01-27T15:46:18.001Z,5.63
2019-01-27T15:48:10.904Z,5.63
2019-01-27T15:49:10.914Z,5.63
2019-01-27T15:51:03.815Z,5.63
2019-01-27T15:52:03.827Z,5.63
2019-01-27T15:53:56.728Z,0.00
2019-01-27T15:54:56.734Z,5.63
2019-01-27T15:56:49.646Z,5.63
2019-01-27T15:57:49.660Z,5.63
2019-01-27T15:59:42.627Z,5.63
2019-01-27T16:00:42.635Z,5.63
2019-01-27T16:02:35.528Z,5.63
2019-01-27T16:03:35.541Z,0.00
2019-01-27T16:05:28.448Z,0.00
2019-01-27T16:06:28.455Z,0.00
2019-01-27T16:08:21.358Z,0.00
2019-01-27T16:09:21.362Z,0.00
2019-01-27T16:11:14.265Z,0.00
2019-01-27T16:12:14.272Z,0.00
2019-01-27T16:14:07.164Z,0.00
2019-01-27T16:15:07.182Z,0.00
2019-01-27T16:17:00.084Z,0.00
2019-01-27T16:18:00.091Z,0.00
2019-01-27T16:19:53.021Z,0.00
2019-01-27T16:20:53.000Z,0.00
2019-01-27T16:22:45.899Z,0.00
2019-01-27T16:23:45.912Z,0.00
2019-01-27T16:25:38.816Z,0.00
2019-01-27T16:26:38.823Z,0.00
2019-01-27T16:28:31.735Z,0.00
2019-01-27T16:29:31.747Z,0.00
2019-01-27T16:31:24.658Z,0.00
2019-01-27T16:32:24.669Z,0.00
2019-01-27T16:34:17.562Z,0.00
2019-01-27T16:35:17.575Z,0.00
2019-01-27T16:37:10.482Z,0.00
2019-01-27T16:38:10.530Z,0.00
2019-01-27T16:40:03.537Z,0.00
2019-01-27T16:41:03.605Z,0.00
2019-01-27T16:42:56.453Z,0.00
2019-01-27T16:43:56.457Z,0.00
2019-01-27T16:45:49.357Z,0.00
2019-01-27T16:46:49.408Z,0.00
2019-01-27T16:48:42.299Z,0.00
2019-01-27T16:49:42.287Z,0.00
2019-01-27T16:51:35.191Z,0.00
2019-01-27T16:52:35.197Z,0.00
2019-01-27T16:54:28.110Z,0.00
2019-01-27T16:55:28.170Z,0.00
2019-01-27T16:57:21.018Z,0.00
2019-01-27T16:58:21.023Z,0.00
2019-01-27T17:00:13.971Z,0.00
2019-01-27T17:01:13.930Z,0.00
2019-01-27T17:03:06.825Z,0.00
2019-01-27T17:04:06.837Z,0.00
2019-01-27T17:05:59.745Z,0.00
2019-01-27T17:06:59.747Z,0.00
2019-01-27T17:08:52.682Z,0.00
2019-01-27T17:09:52.736Z,0.00
2019-01-27T17:11:45.551Z,0.00
2019-01-27T17:12:45.561Z,0.00
2019-01-27T17:14:38.451Z,0.00
2019-01-27T17:15:38.461Z,0.00
2019-01-27T17:17:31.384Z,0.00
2019-01-27T17:18:31.383Z,0.00
2019-01-27T17:20:26.029Z,0.00
2019-01-27T17:21:24.278Z,0.00
2019-01-27T17:23:17.218Z,0.00
2019-01-27T17:24:17.183Z,0.00
2019-01-27T17:26:10.104Z,0.00
2019-01-27T17:27:10.106Z,0.00
2019-01-27T17:29:03.002Z,0.00
2019-01-27T17:30:03.013Z,0.00
2019-01-27T17:31:55.914Z,0.00
2019-01-27T17:32:55.973Z,0.00
2019-01-27T17:34:48.809Z,0.00
2019-01-27T17:35:48.822Z,0.00
2019-01-27T17:37:41.874Z,0.00
2019-01-27T17:38:41.789Z,0.00
2019-01-27T17:40:34.618Z,0.00
2019-01-27T17:41:34.632Z,0.00
2019-01-27T17:43:27.531Z,0.00
2019-01-27T17:44:27.537Z,0.00
2019-01-27T17:46:20.473Z,0.00
2019-01-27T17:47:20.453Z,0.00
2019-01-27T17:49:13.344Z,0.00
2019-01-27T17:50:13.353Z,0.00
2019-01-27T17:52:06.249Z,0.00
2019-01-27T17:53:06.255Z,0.00
2019-01-27T17:54:59.150Z,0.00
2019-01-27T17:55:59.163Z,0.00
2019-01-27T17:57:52.062Z,0.00
2019-01-27T17:58:54.301Z,0.00
2019-01-27T18:00:44.965Z,0.00
2019-01-27T18:01:44.975Z,0.00
2019-01-27T18:03:37.880Z,0.00
2019-01-27T18:04:37.881Z,0.00
2019-01-27T18:06:30.775Z,0.00
2019-01-27T18:07:30.791Z,0.00
2019-01-27T18:09:23.691Z,0.00
2019-01-27T18:10:23.696Z,0.00
2019-01-27T18:12:16.592Z,0.00
2019-01-27T18:13:16.605Z,0.00
2019-01-27T18:15:09.516Z,0.00
2019-01-27T18:16:09.510Z,0.00
2019-01-27T18:18:02.419Z,0.00
2019-01-27T18:19:02.464Z,0.00
2019-01-27T18:20:55.322Z,0.00
2019-01-27T18:21:55.358Z,0.00
2019-01-27T18:23:48.230Z,0.00
2019-01-27T18:24:48.235Z,0.00
2019-01-27T18:26:41.169Z,0.00
2019-01-27T18:27:41.161Z,0.00
2019-01-27T18:29:34.052Z,0.00
2019-01-27T18:30:34.141Z,0.00
2019-01-27T18:32:26.967Z,0.00
2019-01-27T18:33:26.964Z,0.00
2019-01-27T18:35:19.920Z,0.00
2019-01-27T18:36:19.921Z,0.00
2019-01-27T18:38:12.887Z,0.00
2019-01-27T18:39:12.821Z,0.00
2019-01-27T18:41:05.753Z,0.00
2019-01-27T18:42:05.727Z,0.00
2019-01-27T18:43:58.627Z,0.00